Time;durP1;ratioP1;P1;durP2;ratioP2;P2;SDS_P1;SDS_P2;PMS_P1;PMS_P2;Temp;Humidity;BMP_temperature;BMP_pressure;BME280_temperature;BME280_humidity;BME280_pressure;Samples;Min_cycle;Max_cycle;Signal;HPM_P1;HPM_P2
2022/01/15 00:01:16;;;;;;;21.33;3.13;;;-1.00;99.90;;;;;;4994512;28;20081;-73
2022/01/15 00:03:42;;;;;;;1.98;1.65;;;-1.00;99.90;;;;;;4995720;28;20026;-73
2022/01/15 00:06:08;;;;;;;2.45;2.15;;;-1.10;99.90;;;;;;4995580;28;20022;-79
2022/01/15 00:08:34;;;;;;;1.45;1.35;;;-1.10;99.90;;;;;;4995790;28;20049;-81
2022/01/15 00:10:59;;;;;;;0.43;0.43;;;-1.00;99.90;;;;;;4995657;28;20099;-81
2022/01/15 00:13:30;;;;;;;4.13;1.55;;;-1.10;99.90;;;;;;4994427;28;20081;-81
2022/01/15 00:16:25;;;;;;;2.55;2.35;;;-1.10;99.90;;;;;;4995246;28;20137;-75
2022/01/15 00:19:08;;;;;;;7.68;2.45;;;-1.10;99.90;;;;;;4994251;28;20089;-81
2022/01/15 00:21:34;;;;;;;0.32;0.32;;;-1.10;99.90;;;;;;4995455;28;20506;-75
2022/01/15 00:24:00;;;;;;;0.63;0.63;;;-1.00;99.90;;;;;;4995420;28;20026;-81
2022/01/15 00:26:26;;;;;;;0.20;0.20;;;-1.10;99.90;;;;;;4995405;28;20018;-81
2022/01/15 00:28:52;;;;;;;5.35;1.58;;;-1.10;99.90;;;;;;4994113;28;20031;-75
2022/01/15 00:31:18;;;;;;;1.17;1.15;;;-1.10;99.90;;;;;;4995324;28;20022;-81
2022/01/15 00:33:44;;;;;;;0.65;0.65;;;-1.10;99.90;;;;;;4995438;28;20080;-81
2022/01/15 00:36:10;;;;;;;1.33;1.33;;;-1.20;99.90;;;;;;4995069;28;20458;-74
2022/01/15 00:38:36;;;;;;;2.20;1.92;;;-1.10;99.90;;;;;;4993127;28;20031;-81
2022/01/15 00:41:01;;;;;;;1.02;1.02;;;-1.20;99.90;;;;;;4995358;28;20026;-74
2022/01/15 00:43:27;;;;;;;1.35;1.33;;;-1.20;99.90;;;;;;4993920;28;20125;-74
2022/01/15 00:45:55;;;;;;;2.67;2.47;;;-1.20;99.90;;;;;;4982429;28;20541;-81
2022/01/15 00:48:21;;;;;;;2.20;2.10;;;-1.20;99.90;;;;;;4975688;28;20170;-81
2022/01/15 00:50:46;;;;;;;0.77;0.77;;;-1.20;99.90;;;;;;4975593;28;20526;-81
2022/01/15 00:53:12;;;;;;;2.30;2.10;;;-1.20;99.90;;;;;;4979651;28;20153;-75
2022/01/15 00:55:38;;;;;;;3.33;2.88;;;-1.20;99.90;;;;;;4993720;28;20404;-81
2022/01/15 00:58:03;;;;;;;0.60;0.60;;;-1.20;99.90;;;;;;4994326;28;20030;-81
2022/01/15 01:00:29;;;;;;;0.85;0.85;;;-1.20;99.90;;;;;;4993574;28;20509;-81
2022/01/15 01:02:55;;;;;;;1.58;1.50;;;-1.20;99.90;;;;;;4994834;28;20026;-82
2022/01/15 01:05:21;;;;;;;1.23;1.17;;;-1.20;99.90;;;;;;4994878;28;20030;-81
2022/01/15 01:07:47;;;;;;;0.60;0.60;;;-1.20;99.90;;;;;;4994458;28;20026;-75
2022/01/15 01:10:43;;;;;;;0.73;0.73;;;-1.20;99.90;;;;;;4994165;28;20057;-81
2022/01/15 01:23:25;;;;;;;1.40;1.33;;;-1.40;99.90;;;;;;4994480;28;20038;-81
2022/01/15 01:25:57;;;;;;;0.80;0.80;;;-1.40;99.90;;;;;;4994406;28;20054;-81
2022/01/15 01:28:30;;;;;;;2.35;2.15;;;-1.40;99.90;;;;;;4992638;28;20037;-81
2022/01/15 01:36:00;;;;;;;4.20;1.85;;;-1.50;99.90;;;;;;4994697;28;20058;-75
2022/01/15 01:38:31;;;;;;;0.55;0.55;;;-1.50;99.90;;;;;;4993685;28;20109;-81
2022/01/15 01:40:59;;;;;;;10.82;1.17;;;-1.60;99.90;;;;;;4993654;28;20022;-81
2022/01/15 01:48:34;;;;;;;0.65;0.65;;;-1.50;99.90;;;;;;4993910;28;20029;-74
2022/01/15 01:51:00;;;;;;;4.38;1.95;;;-1.50;99.90;;;;;;4992370;28;20026;-75
2022/01/15 01:53:25;;;;;;;2.70;1.35;;;-1.50;99.90;;;;;;4993326;28;20027;-81
2022/01/15 01:55:51;;;;;;;0.35;0.35;;;-1.40;99.90;;;;;;4992374;28;20410;-81
2022/01/15 01:58:16;;;;;;;0.40;0.40;;;-1.30;99.90;;;;;;4993555;28;20023;-81
2022/01/15 02:00:42;;;;;;;1.83;1.45;;;-1.30;99.90;;;;;;4993787;28;20402;-81
2022/01/15 02:03:08;;;;;;;9.02;2.55;;;-1.40;99.90;;;;;;4993629;28;20125;-81
2022/01/15 02:05:33;;;;;;;0.88;0.88;;;-1.60;99.90;;;;;;4993781;28;20034;-81
2022/01/15 02:07:59;;;;;;;0.40;0.40;;;-1.60;99.90;;;;;;4991877;28;20026;-81
2022/01/15 02:10:25;;;;;;;0.55;0.55;;;-1.70;99.90;;;;;;4991915;28;20031;-81
2022/01/15 02:12:51;;;;;;;2.13;1.83;;;-1.70;99.90;;;;;;4993683;28;20105;-75
2022/01/15 02:15:20;;;;;;;5.22;2.15;;;-1.70;99.90;;;;;;4993516;28;20535;-75
2022/01/15 02:17:47;;;;;;;0.90;0.63;;;-1.70;99.90;;;;;;4993201;28;20034;-75
2022/01/15 02:25:44;;;;;;;1.00;0.95;;;-1.60;99.90;;;;;;4993589;28;20029;-74
2022/01/15 02:28:11;;;;;;;0.98;0.98;;;-1.60;99.90;;;;;;4973899;28;20577;-81
2022/01/15 02:30:37;;;;;;;2.70;2.40;;;-1.60;99.90;;;;;;4973890;28;20027;-81
2022/01/15 02:33:05;;;;;;;1.20;1.10;;;-1.60;99.90;;;;;;4973805;28;20018;-81
2022/01/15 02:35:31;;;;;;;1.48;1.40;;;-1.60;99.90;;;;;;4972745;28;20512;-81
2022/01/15 02:38:05;;;;;;;2.20;1.42;;;-1.60;99.90;;;;;;4973375;28;20102;-75
2022/01/15 02:40:35;;;;;;;0.85;0.52;;;-1.70;99.90;;;;;;4973233;28;20394;-75
2022/01/15 02:43:14;;;;;;;1.45;1.35;;;-1.70;99.90;;;;;;4973874;28;20105;-81
2022/01/15 02:45:46;;;;;;;0.85;0.85;;;-1.70;99.90;;;;;;4983076;28;20033;-81
2022/01/15 02:48:13;;;;;;;2.75;2.00;;;-1.80;99.90;;;;;;4992979;28;20105;-81
2022/01/15 02:50:40;;;;;;;0.75;0.75;;;-1.80;99.90;;;;;;4992934;28;20035;-75
2022/01/15 02:53:07;;;;;;;1.48;1.38;;;-1.80;99.90;;;;;;4992651;28;20022;-75
2022/01/15 02:55:33;;;;;;;0.85;0.85;;;-1.90;99.90;;;;;;4973591;28;20142;-81
2022/01/15 02:57:59;;;;;;;0.68;0.68;;;-1.90;99.90;;;;;;4973694;28;20109;-80
2022/01/15 03:00:26;;;;;;;1.15;1.13;;;-1.90;99.90;;;;;;4973727;28;20035;-81
2022/01/15 03:02:52;;;;;;;1.90;1.80;;;-1.90;99.90;;;;;;4973630;28;20490;-81
2022/01/15 03:05:20;;;;;;;2.38;1.73;;;-1.90;99.90;;;;;;4972404;28;20081;-75
2022/01/15 03:07:46;;;;;;;0.98;0.98;;;-2.00;99.90;;;;;;4973347;28;20564;-81
2022/01/15 03:10:12;;;;;;;0.50;0.47;;;-1.90;99.90;;;;;;4973039;28;20058;-81
2022/01/15 03:12:37;;;;;;;2.22;2.03;;;-1.90;99.90;;;;;;4973585;28;20486;-81
2022/01/15 03:15:05;;;;;;;1.92;1.23;;;-1.90;99.90;;;;;;4973535;28;20059;-75
2022/01/15 03:17:32;;;;;;;0.65;0.65;;;-1.90;99.90;;;;;;4973483;28;20022;-75
2022/01/15 03:19:58;;;;;;;1.58;1.48;;;-1.90;99.90;;;;;;4972252;28;20054;-81
2022/01/15 03:22:23;;;;;;;1.05;1.05;;;-1.90;99.90;;;;;;4972988;28;20035;-81
2022/01/15 03:24:50;;;;;;;1.80;1.65;;;-1.90;99.90;;;;;;4973385;28;20038;-81
2022/01/15 03:27:16;;;;;;;1.75;1.65;;;-1.90;99.90;;;;;;4985682;28;20533;-81
2022/01/15 03:29:42;;;;;;;2.38;2.10;;;-1.90;99.90;;;;;;4992764;28;20394;-75
2022/01/15 03:32:08;;;;;;;3.15;1.67;;;-2.00;99.90;;;;;;4993766;28;20030;-75
2022/01/15 03:34:33;;;;;;;4.07;3.13;;;-2.00;99.90;;;;;;4995215;28;20558;-81
2022/01/15 03:36:59;;;;;;;0.93;0.90;;;-2.00;99.90;;;;;;4996374;28;20030;-81
2022/01/15 03:39:25;;;;;;;1.00;1.00;;;-2.00;99.90;;;;;;4995932;28;20033;-81
2022/01/15 03:41:50;;;;;;;2.22;2.05;;;-2.00;99.90;;;;;;4995391;28;20027;-75
2022/01/15 03:44:16;;;;;;;3.75;1.90;;;-2.00;99.90;;;;;;4994974;28;20030;-81
2022/01/15 03:46:42;;;;;;;1.50;1.40;;;-2.00;99.90;;;;;;4975630;28;20041;-75
2022/01/15 03:49:07;;;;;;;2.58;2.05;;;-2.00;99.90;;;;;;4976155;28;20035;-81
2022/01/15 03:51:33;;;;;;;0.57;0.52;;;-2.10;99.90;;;;;;4976040;28;20037;-81
2022/01/15 03:53:59;;;;;;;0.82;0.77;;;-2.10;99.90;;;;;;4983116;28;20401;-75
2022/01/15 03:56:24;;;;;;;0.65;0.65;;;-2.10;99.90;;;;;;4995895;28;20027;-75
2022/01/15 03:58:50;;;;;;;2.40;1.13;;;-2.10;99.90;;;;;;4995985;28;20034;-75
2022/01/15 04:01:15;;;;;;;1.65;1.20;;;-2.10;99.90;;;;;;4996153;28;20034;-81
2022/01/15 04:03:41;;;;;;;0.57;0.57;;;-2.10;99.90;;;;;;4994642;28;20034;-81
2022/01/15 04:06:07;;;;;;;0.15;0.15;;;-2.00;99.90;;;;;;4995670;28;20030;-75
2022/01/15 04:08:32;;;;;;;0.45;0.45;;;-2.00;99.90;;;;;;4995700;28;20041;-81
2022/01/15 04:10:58;;;;;;;1.27;0.77;;;-2.00;99.90;;;;;;4994306;28;20125;-75
2022/01/15 04:13:24;;;;;;;0.57;0.57;;;-2.00;99.90;;;;;;4995077;28;20045;-81
2022/01/15 04:15:52;;;;;;;1.48;1.38;;;-2.00;99.90;;;;;;4995645;28;20078;-81
2022/01/15 04:18:22;;;;;;;0.95;0.95;;;-2.00;99.90;;;;;;4995459;28;20018;-82
2022/01/15 04:20:48;;;;;;;3.03;0.90;;;-2.10;99.90;;;;;;4994292;28;20026;-82
2022/01/15 04:23:14;;;;;;;0.75;0.75;;;-2.00;99.90;;;;;;4993856;28;20037;-75
2022/01/15 04:25:40;;;;;;;1.05;1.02;;;-2.10;99.90;;;;;;4995561;28;20037;-82
2022/01/15 04:28:09;;;;;;;1.63;0.88;;;-2.10;99.90;;;;;;4994992;28;20433;-81
2022/01/15 04:30:36;;;;;;;0.57;0.57;;;-2.10;99.90;;;;;;4993959;28;20045;-75
2022/01/15 04:33:02;;;;;;;3.25;1.48;;;-2.20;99.90;;;;;;4995519;28;20029;-82
2022/01/15 04:35:27;;;;;;;0.57;0.57;;;-2.20;99.90;;;;;;4995275;28;20022;-75
2022/01/15 04:38:00;;;;;;;0.60;0.60;;;-2.20;99.90;;;;;;4995194;28;20041;-81
2022/01/15 04:40:26;;;;;;;0.47;0.43;;;-2.20;99.90;;;;;;4995028;28;20026;-81
2022/01/15 04:42:52;;;;;;;0.35;0.35;;;-2.20;99.90;;;;;;4994810;28;20035;-82
2022/01/15 04:45:17;;;;;;;2.55;0.65;;;-2.20;99.90;;;;;;4993284;28;20042;-81
2022/01/15 04:47:43;;;;;;;2.20;2.00;;;-2.30;99.90;;;;;;4994855;28;20030;-82
2022/01/15 04:50:13;;;;;;;1.42;1.23;;;-2.30;99.90;;;;;;4994794;28;20045;-75
2022/01/15 04:52:39;;;;;;;4.43;1.95;;;-2.30;99.90;;;;;;4994652;28;20065;-81
2022/01/15 04:55:06;;;;;;;0.77;0.77;;;-2.30;99.90;;;;;;4994893;28;20050;-81
2022/01/15 04:57:33;;;;;;;5.47;2.85;;;-2.30;99.90;;;;;;4993703;28;20026;-81
2022/01/15 04:59:58;;;;;;;2.80;2.60;;;-2.40;99.90;;;;;;4994879;28;20062;-75
2022/01/15 05:02:24;;;;;;;3.75;2.80;;;-2.40;99.90;;;;;;4994678;28;20094;-81
2022/01/15 05:04:50;;;;;;;1.90;1.80;;;-2.40;99.90;;;;;;4994818;28;20597;-78
2022/01/15 05:07:16;;;;;;;1.77;1.30;;;-2.40;99.90;;;;;;4994591;28;20039;-82
2022/01/15 05:09:41;;;;;;;8.05;2.05;;;-2.40;99.90;;;;;;4994321;28;20060;-75
2022/01/15 05:12:24;;;;;;;4.18;3.28;;;-2.40;99.90;;;;;;4994705;28;20398;-81
2022/01/15 05:14:50;;;;;;;2.28;0.75;;;-2.40;99.90;;;;;;4994328;28;20073;-81
2022/01/15 05:17:15;;;;;;;0.30;0.30;;;-2.40;99.90;;;;;;4994312;28;20070;-82
2022/01/15 05:19:41;;;;;;;2.03;1.50;;;-2.30;99.90;;;;;;4993042;28;20030;-82
2022/01/15 05:22:07;;;;;;;4.53;1.90;;;-2.40;99.90;;;;;;4993987;28;20038;-81
2022/01/15 05:24:33;;;;;;;1.13;0.88;;;-2.40;99.90;;;;;;4994449;28;20026;-82
2022/01/15 05:26:59;;;;;;;0.32;0.32;;;-2.50;99.90;;;;;;4994242;28;20493;-82
2022/01/15 05:29:25;;;;;;;2.92;1.85;;;-2.50;99.90;;;;;;4993036;28;20513;-75
2022/01/15 05:31:51;;;;;;;3.60;1.58;;;-2.60;99.90;;;;;;4994405;28;20022;-80
2022/01/15 05:34:17;;;;;;;2.20;1.00;;;-2.60;99.90;;;;;;4994010;28;20482;-82
2022/01/15 05:36:42;;;;;;;3.85;2.60;;;-2.60;99.90;;;;;;4993874;28;20030;-82
2022/01/15 05:39:08;;;;;;;0.50;0.50;;;-2.60;99.90;;;;;;4994193;28;20152;-75
2022/01/15 05:41:34;;;;;;;1.08;0.80;;;-2.60;99.90;;;;;;4991828;28;20592;-75
2022/01/15 05:44:02;;;;;;;2.22;1.88;;;-2.60;99.90;;;;;;4994160;28;20026;-81
2022/01/15 05:46:29;;;;;;;0.15;0.15;;;-2.60;99.90;;;;;;4975673;28;20073;-75
2022/01/15 05:48:55;;;;;;;1.02;1.00;;;-2.60;99.90;;;;;;4974462;28;20074;-82
2022/01/15 05:51:21;;;;;;;0.28;0.28;;;-2.60;99.90;;;;;;4974186;28;20023;-81
2022/01/15 05:53:47;;;;;;;0.55;0.55;;;-2.60;99.90;;;;;;4974335;28;20093;-75
2022/01/15 05:56:12;;;;;;;0.08;0.08;;;-2.60;99.90;;;;;;4986928;28;20026;-82
2022/01/15 05:58:38;;;;;;;0.65;0.65;;;-2.70;99.90;;;;;;4992146;28;20033;-82
2022/01/15 06:01:04;;;;;;;1.63;1.52;;;-2.70;99.90;;;;;;4992659;28;20026;-82
2022/01/15 06:03:29;;;;;;;0.60;0.60;;;-2.70;99.90;;;;;;4993622;28;20030;-82
2022/01/15 06:05:55;;;;;;;0.10;0.10;;;-2.70;99.90;;;;;;4993761;28;20030;-75
2022/01/15 06:08:21;;;;;;;1.98;0.95;;;-2.70;99.90;;;;;;4992437;28;20145;-75
2022/01/15 06:10:46;;;;;;;0.63;0.63;;;-2.70;99.90;;;;;;4993274;28;20516;-82
2022/01/15 06:13:12;;;;;;;0.65;0.65;;;-2.70;99.90;;;;;;4993841;28;20027;-82
2022/01/15 06:15:37;;;;;;;0.20;0.20;;;-2.70;99.90;;;;;;4993443;28;20046;-82
2022/01/15 06:18:03;;;;;;;0.82;0.82;;;-2.70;99.90;;;;;;4993084;28;20046;-75
2022/01/15 06:20:29;;;;;;;0.22;0.22;;;-2.80;99.90;;;;;;4993619;28;20018;-75
2022/01/15 06:22:54;;;;;;;0.28;0.28;;;-2.70;99.90;;;;;;4993088;28;20026;-81
2022/01/15 06:25:20;;;;;;;1.05;0.88;;;-2.80;99.90;;;;;;4993463;28;20027;-82
2022/01/15 06:27:46;;;;;;;15.23;4.03;;;-2.80;99.90;;;;;;4993439;28;20036;-75
2022/01/15 06:30:12;;;;;;;0.38;0.38;;;-2.80;99.90;;;;;;4993230;28;20030;-75
2022/01/15 06:32:37;;;;;;;1.42;1.33;;;-2.90;99.90;;;;;;4993253;28;20014;-75
2022/01/15 06:35:09;;;;;;;2.05;0.70;;;-2.90;99.90;;;;;;4991798;28;20050;-80
2022/01/15 06:37:35;;;;;;;6.43;1.17;;;-3.00;99.90;;;;;;4993120;28;20026;-81
2022/01/15 06:40:00;;;;;;;0.77;0.77;;;-3.00;99.90;;;;;;4993311;28;20027;-81
2022/01/15 06:42:26;;;;;;;0.43;0.43;;;-3.00;99.90;;;;;;4992483;28;20432;-81
2022/01/15 06:44:52;;;;;;;0.45;0.45;;;-3.00;99.90;;;;;;4993417;28;20018;-75
2022/01/15 06:47:18;;;;;;;0.10;0.10;;;-3.00;99.90;;;;;;4992921;28;20030;-75
2022/01/15 06:49:43;;;;;;;0.80;0.80;;;-3.00;99.90;;;;;;4992873;28;20034;-75
2022/01/15 06:52:09;;;;;;;0.35;0.35;;;-3.10;99.90;;;;;;4992909;28;20030;-75
2022/01/15 06:54:35;;;;;;;1.15;0.90;;;-3.10;99.90;;;;;;4992712;28;20015;-75
2022/01/15 06:57:00;;;;;;;0.65;0.65;;;-3.10;99.90;;;;;;4993059;28;20045;-75
2022/01/15 06:59:26;;;;;;;1.17;0.85;;;-3.10;99.90;;;;;;4993101;28;20026;-75
2022/01/15 07:01:52;;;;;;;2.65;1.52;;;-3.10;99.90;;;;;;4993000;28;20034;-81
2022/01/15 07:04:17;;;;;;;0.15;0.15;;;-3.10;99.90;;;;;;4993042;28;20481;-81
2022/01/15 07:06:43;;;;;;;0.28;0.28;;;-3.10;99.90;;;;;;4993302;28;20033;-81
2022/01/15 07:09:09;;;;;;;0.10;0.10;;;-3.10;99.90;;;;;;4995434;28;20039;-81
2022/01/15 07:11:34;;;;;;;0.65;0.65;;;-3.10;99.90;;;;;;4994980;28;20449;-75
2022/01/15 07:14:00;;;;;;;0.40;0.40;;;-3.10;99.90;;;;;;4996529;28;20038;-75
2022/01/15 07:16:25;;;;;;;0.90;0.80;;;-3.20;99.90;;;;;;4995346;28;20026;-81
2022/01/15 07:18:51;;;;;;;0.10;0.10;;;-3.20;99.90;;;;;;4996660;28;20023;-75
2022/01/15 07:21:17;;;;;;;0.20;0.20;;;-3.30;99.90;;;;;;4995303;28;20350;-74
2022/01/15 07:23:42;;;;;;;5.82;3.03;;;-3.20;99.90;;;;;;4995230;28;20490;-75
2022/01/15 07:26:10;;;;;;;0.40;0.40;;;-3.20;99.90;;;;;;4996498;28;20112;-75
2022/01/15 07:28:36;;;;;;;2.75;1.95;;;-3.30;99.90;;;;;;4995416;28;20046;-81
2022/01/15 07:31:01;;;;;;;0.75;0.73;;;-3.30;99.90;;;;;;4996362;28;20401;-81
2022/01/15 07:33:28;;;;;;;0.35;0.35;;;-3.30;99.90;;;;;;4996450;28;20022;-81
2022/01/15 07:35:55;;;;;;;0.80;0.80;;;-3.30;99.90;;;;;;4996594;28;20033;-75
2022/01/15 07:38:21;;;;;;;0.60;0.45;;;-3.30;99.90;;;;;;4996458;28;20393;-81
2022/01/15 07:40:47;;;;;;;0.10;0.10;;;-3.30;99.90;;;;;;4996446;28;20177;-75
2022/01/15 07:43:13;;;;;;;1.85;1.75;;;-3.20;99.90;;;;;;4995464;28;20026;-81
2022/01/15 07:45:39;;;;;;;0.43;0.43;;;-3.20;99.90;;;;;;4985144;28;20039;-81
2022/01/15 07:48:05;;;;;;;1.17;1.15;;;-3.30;99.90;;;;;;4976642;28;20039;-81
2022/01/15 07:50:30;;;;;;;0.00;0.00;;;-3.20;99.90;;;;;;4975445;28;20031;-81
2022/01/15 07:52:57;;;;;;;0.10;0.10;;;-3.20;99.90;;;;;;4976247;28;20023;-75
2022/01/15 07:55:24;;;;;;;2.60;0.90;;;-3.10;99.90;;;;;;4983513;28;20023;-81
2022/01/15 07:57:50;;;;;;;0.40;0.40;;;-3.10;99.90;;;;;;4995651;28;20077;-75
2022/01/15 08:00:16;;;;;;;0.13;0.13;;;-3.20;99.90;;;;;;4994885;28;20513;-75
2022/01/15 08:02:42;;;;;;;0.25;0.25;;;-3.20;99.90;;;;;;4996054;28;20081;-75
2022/01/15 08:05:09;;;;;;;0.73;0.65;;;-3.20;99.90;;;;;;4994594;28;20038;-75
2022/01/15 08:07:35;;;;;;;0.47;0.38;;;-3.20;99.90;;;;;;4995710;28;20026;-81
2022/01/15 08:10:03;;;;;;;0.40;0.40;;;-3.10;99.90;;;;;;4995693;28;20034;-81
2022/01/15 08:12:29;;;;;;;0.30;0.30;;;-3.20;99.90;;;;;;4995423;28;20033;-81
2022/01/15 08:14:55;;;;;;;0.15;0.15;;;-3.10;99.90;;;;;;4995602;28;20047;-75
2022/01/15 08:17:21;;;;;;;0.40;0.40;;;-3.10;99.90;;;;;;4994357;28;20034;-81
2022/01/15 08:19:46;;;;;;;0.32;0.32;;;-3.00;99.90;;;;;;4993477;28;20121;-75
2022/01/15 08:22:12;;;;;;;0.90;0.90;;;-3.00;99.90;;;;;;4995198;28;20026;-81
2022/01/15 08:24:38;;;;;;;1.17;1.17;;;-3.10;99.90;;;;;;4995608;28;20038;-81
2022/01/15 08:27:04;;;;;;;0.17;0.17;;;-3.00;99.90;;;;;;4995580;28;20507;-75
2022/01/15 08:29:29;;;;;;;0.90;0.63;;;-3.00;99.90;;;;;;4994136;28;20038;-74
2022/01/15 08:31:56;;;;;;;0.35;0.35;;;-2.90;99.90;;;;;;4995353;28;20031;-75
2022/01/15 08:34:22;;;;;;;1.80;1.40;;;-2.80;99.90;;;;;;4995324;28;20482;-81
2022/01/15 08:36:47;;;;;;;0.00;0.00;;;-2.80;99.90;;;;;;4995315;28;20037;-81
2022/01/15 08:39:13;;;;;;;2.10;1.10;;;-2.70;99.90;;;;;;4995331;28;20049;-75
2022/01/15 08:41:40;;;;;;;0.65;0.65;;;-2.70;99.90;;;;;;4995274;28;20034;-75
2022/01/15 08:44:06;;;;;;;1.35;0.82;;;-2.70;99.90;;;;;;4994369;28;20019;-81
2022/01/15 08:46:32;;;;;;;0.57;0.57;;;-2.60;99.90;;;;;;4977488;28;20057;-81
2022/01/15 08:48:58;;;;;;;0.40;0.40;;;-2.50;99.90;;;;;;4975628;28;20027;-75
2022/01/15 08:51:24;;;;;;;0.73;0.73;;;-2.30;99.90;;;;;;4974129;28;20484;-81
2022/01/15 08:53:49;;;;;;;0.20;0.20;;;-2.30;99.90;;;;;;4975430;28;20077;-81
2022/01/15 08:56:15;;;;;;;0.95;0.95;;;-2.30;99.90;;;;;;4984851;28;20061;-75
2022/01/15 08:58:41;;;;;;;0.40;0.40;;;-2.20;99.90;;;;;;4990262;28;20118;-81
2022/01/15 09:01:13;;;;;;;0.45;0.45;;;-2.10;99.90;;;;;;4975615;28;20110;-81
2022/01/15 09:03:40;;;;;;;2.45;2.25;;;-2.00;99.90;;;;;;4975089;28;20398;-75
2022/01/15 09:06:06;;;;;;;3.20;0.80;;;-2.00;99.90;;;;;;4975243;28;20073;-81
2022/01/15 09:08:31;;;;;;;1.35;1.27;;;-2.00;99.90;;;;;;4975305;28;20473;-81
2022/01/15 09:10:57;;;;;;;1.25;1.15;;;-1.90;99.90;;;;;;4974961;28;20074;-75
2022/01/15 09:13:23;;;;;;;0.73;0.73;;;-1.80;99.90;;;;;;4975335;28;20382;-81
2022/01/15 09:15:52;;;;;;;1.60;1.27;;;-1.70;99.90;;;;;;4975082;28;20050;-82
2022/01/15 09:18:19;;;;;;;0.10;0.10;;;-1.60;99.90;;;;;;4974967;28;20026;-81
2022/01/15 09:20:46;;;;;;;0.68;0.68;;;-1.60;99.90;;;;;;4974511;28;20019;-75
2022/01/15 09:23:12;;;;;;;1.25;1.20;;;-1.50;99.90;;;;;;4974705;28;20015;-75
2022/01/15 09:25:38;;;;;;;1.13;1.13;;;-1.50;99.90;;;;;;4974920;28;20014;-82
2022/01/15 09:30:48;;;;;;;0.50;0.50;;;-1.40;99.90;;;;;;4994383;28;20033;-82
2022/01/15 09:33:15;;;;;;;0.50;0.50;;;-1.40;99.90;;;;;;4994001;28;20018;-75
2022/01/15 09:35:41;;;;;;;0.15;0.15;;;-1.30;99.90;;;;;;4994331;28;20105;-75
2022/01/15 09:38:07;;;;;;;0.50;0.50;;;-1.20;99.90;;;;;;4992577;28;20121;-81
2022/01/15 09:40:33;;;;;;;1.30;1.20;;;-1.10;99.90;;;;;;4994253;28;20023;-81
2022/01/15 09:42:59;;;;;;;1.95;1.35;;;-1.00;99.90;;;;;;4993911;28;20548;-81
2022/01/15 09:45:25;;;;;;;0.93;0.93;;;-0.90;99.90;;;;;;4993110;28;20108;-81
2022/01/15 09:47:57;;;;;;;0.68;0.68;;;-1.00;99.90;;;;;;4993796;28;20030;-75
2022/01/15 09:50:23;;;;;;;1.17;0.93;;;-0.80;99.90;;;;;;4994011;28;20035;-81
2022/01/15 09:52:49;;;;;;;0.90;0.90;;;-0.80;99.90;;;;;;4993543;28;20036;-81
2022/01/15 09:55:16;;;;;;;0.30;0.30;;;-0.80;99.90;;;;;;4993935;28;20030;-82
2022/01/15 09:57:41;;;;;;;1.35;1.27;;;-0.70;99.90;;;;;;4993852;28;20022;-81
2022/01/15 10:00:16;;;;;;;0.20;0.20;;;-0.60;99.90;;;;;;4993727;28;20566;-75
2022/01/15 10:02:43;;;;;;;0.85;0.85;;;-0.60;99.90;;;;;;4993909;28;20025;-82
2022/01/15 10:05:10;;;;;;;1.48;1.38;;;-0.50;99.90;;;;;;4993752;28;20061;-82
2022/01/15 10:07:36;;;;;;;1.08;1.02;;;-0.50;99.90;;;;;;4992217;28;20041;-82
2022/01/15 10:10:18;;;;;;;1.02;0.93;;;-0.50;99.90;;;;;;4993442;28;20030;-81
2022/01/15 10:12:44;;;;;;;2.63;1.00;;;-0.40;99.90;;;;;;4992858;28;20022;-75
2022/01/15 10:15:11;;;;;;;1.48;1.38;;;-0.20;99.90;;;;;;4993530;28;20058;-75
2022/01/15 10:17:39;;;;;;;0.98;0.98;;;-0.10;99.90;;;;;;4993246;28;20053;-81
2022/01/15 10:20:10;;;;;;;0.60;0.60;;;0.00;99.90;;;;;;4993506;28;20033;-80
2022/01/15 10:22:42;;;;;;;1.35;1.27;;;0.10;99.90;;;;;;4993065;28;20034;-81
2022/01/15 10:25:11;;;;;;;0.93;0.93;;;0.20;99.90;;;;;;4992104;28;20488;-75
2022/01/15 10:27:46;;;;;;;0.73;0.73;;;0.20;99.90;;;;;;4993185;28;20060;-75
2022/01/15 10:30:22;;;;;;;2.25;2.05;;;0.30;99.90;;;;;;4993146;28;20022;-81
2022/01/15 10:32:58;;;;;;;2.40;2.20;;;0.30;99.90;;;;;;4992286;28;20019;-81
2022/01/15 10:35:35;;;;;;;0.70;0.70;;;0.40;99.90;;;;;;4972145;28;20023;-81
2022/01/15 10:38:08;;;;;;;1.45;1.35;;;0.30;99.90;;;;;;4973230;28;20042;-75
2022/01/15 10:40:55;;;;;;;0.73;0.73;;;0.40;99.90;;;;;;4973785;28;20098;-81
2022/01/15 10:43:33;;;;;;;1.23;1.05;;;0.50;99.90;;;;;;4971987;28;20061;-81
2022/01/15 10:46:02;;;;;;;0.82;0.82;;;0.70;99.90;;;;;;4985424;28;20026;-81
2022/01/15 10:48:34;;;;;;;0.40;0.40;;;0.80;99.90;;;;;;4992787;28;20034;-81
2022/01/15 10:51:05;;;;;;;1.85;1.75;;;0.80;99.90;;;;;;4992984;28;20437;-76
2022/01/15 10:53:41;;;;;;;1.85;1.48;;;0.90;99.90;;;;;;4992636;28;20113;-75
2022/01/15 10:56:09;;;;;;;2.88;1.67;;;0.90;99.90;;;;;;4992875;28;20030;-81
2022/01/15 10:58:35;;;;;;;4.50;2.15;;;1.10;99.90;;;;;;4993030;28;20015;-81
2022/01/15 11:01:01;;;;;;;1.05;0.95;;;1.20;99.90;;;;;;4991469;28;20041;-81
2022/01/15 11:03:37;;;;;;;0.65;0.65;;;1.40;99.90;;;;;;4992816;28;20026;-81
2022/01/15 11:06:03;;;;;;;1.00;0.98;;;1.50;99.90;;;;;;4992656;28;20030;-80
2022/01/15 11:08:29;;;;;;;0.52;0.52;;;1.60;99.90;;;;;;4992351;28;20109;-80
2022/01/15 11:10:59;;;;;;;0.80;0.80;;;1.70;99.90;;;;;;4991409;28;20121;-81
2022/01/15 11:13:29;;;;;;;1.63;1.38;;;1.70;99.90;;;;;;4991598;28;20383;-81
2022/01/15 11:15:59;;;;;;;1.33;0.65;;;1.70;99.90;;;;;;4991467;28;20062;-75
2022/01/15 11:18:37;;;;;;;0.52;0.52;;;1.50;99.90;;;;;;4991420;28;20027;-75
2022/01/15 11:21:14;;;;;;;0.63;0.63;;;1.40;99.90;;;;;;4991471;28;20466;-80
2022/01/15 11:23:41;;;;;;;2.22;2.03;;;1.50;99.90;;;;;;4992645;28;20058;-81
2022/01/15 11:26:13;;;;;;;1.95;1.55;;;1.60;99.90;;;;;;4991510;28;20058;-80
2022/01/15 11:28:41;;;;;;;1.65;1.55;;;1.70;99.90;;;;;;4992362;28;20022;-75
2022/01/15 11:31:13;;;;;;;0.55;0.55;;;1.60;99.90;;;;;;4991506;28;20057;-75
2022/01/15 11:33:46;;;;;;;0.55;0.55;;;1.60;99.90;;;;;;4987984;28;20022;-75
2022/01/15 11:36:35;;;;;;;1.63;1.52;;;1.50;99.90;;;;;;4972978;28;20033;-81
2022/01/15 11:39:12;;;;;;;0.80;0.80;;;1.60;99.90;;;;;;4973479;28;20023;-81
2022/01/15 11:41:41;;;;;;;2.28;1.08;;;1.60;99.90;;;;;;4973446;28;20019;-80
2022/01/15 11:44:17;;;;;;;1.10;1.10;;;1.60;99.90;;;;;;4973106;28;20022;-75
2022/01/15 11:46:52;;;;;;;1.35;1.10;;;1.70;99.90;;;;;;5002601;28;20042;-75
2022/01/15 11:49:42;;;;;;;4.05;2.00;;;1.70;99.90;;;;;;4973251;28;20024;-81
2022/01/15 11:52:14;;;;;;;0.77;0.77;;;2.00;99.90;;;;;;4971582;28;20023;-80
2022/01/15 11:54:54;;;;;;;2.30;0.70;;;2.10;99.90;;;;;;4974427;28;20022;-80
2022/01/15 11:57:24;;;;;;;0.50;0.50;;;2.20;99.90;;;;;;4976540;28;20033;-75
2022/01/15 11:59:51;;;;;;;1.10;1.02;;;2.20;99.90;;;;;;4976506;28;20549;-75
2022/01/15 12:02:30;;;;;;;3.03;1.65;;;2.30;99.90;;;;;;4975915;28;20026;-75
2022/01/15 12:05:18;;;;;;;1.02;0.93;;;2.60;99.90;;;;;;4975238;28;20471;-81
2022/01/15 12:07:46;;;;;;;1.05;1.05;;;2.90;99.90;;;;;;4976281;28;20033;-81
2022/01/15 12:10:13;;;;;;;1.10;1.08;;;3.00;99.90;;;;;;4976100;28;20093;-75
2022/01/15 12:12:51;;;;;;;2.10;1.33;;;3.20;99.90;;;;;;4976304;28;20533;-75
2022/01/15 12:15:24;;;;;;;1.50;1.40;;;3.20;99.90;;;;;;4976348;28;20047;-80
2022/01/15 12:17:53;;;;;;;0.77;0.77;;;3.40;99.90;;;;;;4976055;28;20078;-80
2022/01/15 12:20:20;;;;;;;0.98;0.98;;;3.70;99.90;;;;;;4976141;28;20031;-81
2022/01/15 12:23:26;;;;;;;0.30;0.30;;;3.60;99.90;;;;;;4975884;28;20029;-75
2022/01/15 12:25:55;;;;;;;1.60;1.40;;;3.70;99.90;;;;;;4936416;29;20039;-75
2022/01/15 12:28:24;;;;;;;4.47;1.75;;;3.90;99.90;;;;;;4954649;28;20398;-81
2022/01/15 12:30:54;;;;;;;1.15;1.10;;;4.10;99.90;;;;;;4954452;29;20577;-81
2022/01/15 12:33:20;;;;;;;2.53;2.35;;;4.30;99.90;;;;;;4954423;29;20091;-81
2022/01/15 12:35:50;;;;;;;0.75;0.75;;;4.60;99.90;;;;;;4954533;29;20035;-75
2022/01/15 12:38:29;;;;;;;0.17;0.17;;;4.80;99.90;;;;;;4954333;29;20043;-75
2022/01/15 12:41:01;;;;;;;1.17;1.17;;;4.90;99.90;;;;;;4938553;29;20041;-81
2022/01/15 12:43:37;;;;;;;0.73;0.73;;;4.90;99.90;;;;;;4954511;29;20529;-81
2022/01/15 12:46:09;;;;;;;1.75;1.52;;;5.00;99.90;;;;;;4940659;29;20031;-81
2022/01/15 12:48:45;;;;;;;1.30;1.23;;;5.00;99.90;;;;;;4954113;29;20078;-75
2022/01/15 12:51:12;;;;;;;0.75;0.75;;;4.90;99.90;;;;;;4953983;29;20050;-75
2022/01/15 12:53:40;;;;;;;4.10;2.35;;;5.10;99.90;;;;;;4954137;29;20050;-81
2022/01/15 12:56:12;;;;;;;1.63;1.52;;;5.00;99.90;;;;;;4967063;28;20125;-81
2022/01/15 12:58:39;;;;;;;0.38;0.38;;;5.20;99.90;;;;;;4994923;28;20101;-81
2022/01/15 13:01:06;;;;;;;2.97;1.73;;;5.30;99.90;;;;;;4994900;28;20022;-75
2022/01/15 13:03:36;;;;;;;0.60;0.60;;;5.50;99.90;;;;;;4993645;28;20409;-81
2022/01/15 13:06:03;;;;;;;1.02;0.73;;;5.50;99.90;;;;;;4992938;28;20022;-80
2022/01/15 13:08:42;;;;;;;1.10;1.08;;;5.80;99.90;;;;;;4994782;28;20054;-80
2022/01/15 13:13:41;;;;;;;2.38;2.17;;;6.30;99.90;;;;;;4994327;28;20394;-81
2022/01/15 13:16:08;;;;;;;4.97;0.63;;;7.10;99.90;;;;;;4993215;28;20416;-75
2022/01/15 13:18:38;;;;;;;0.55;0.55;;;7.10;99.90;;;;;;4994509;28;20022;-81
2022/01/15 13:21:16;;;;;;;3.47;1.75;;;7.00;99.90;;;;;;4994472;28;20034;-80
2022/01/15 13:24:01;;;;;;;5.85;2.47;;;6.90;99.90;;;;;;4994452;28;20027;-81